sensor_id;sensor_type;location;lat;lon;timestamp;temperature;humidity
8114;DHT22;4099;52.684;9.918;2023-06-14T00:04:34;15.60;99.90
8114;DHT22;4099;52.684;9.918;2023-06-14T00:09:36;15.50;99.90
8114;DHT22;4099;52.684;9.918;2023-06-14T00:14:39;15.30;99.90
8114;DHT22;4099;52.684;9.918;2023-06-14T00:19:41;15.40;99.90
8114;DHT22;4099;52.684;9.918;2023-06-14T00:24:43;15.50;99.90
8114;DHT22;4099;52.684;9.918;2023-06-14T00:29:46;15.50;99.90
8114;DHT22;4099;52.684;9.918;2023-06-14T00:34:49;15.40;99.90
8114;DHT22;4099;52.684;9.918;2023-06-14T00:39:50;15.30;99.90
8114;DHT22;4099;52.684;9.918;2023-06-14T00:44:55;15.10;99.90
8114;DHT22;4099;52.684;9.918;2023-06-14T00:49:57;14.90;99.90
8114;DHT22;4099;52.684;9.918;2023-06-14T00:55:00;15.00;99.90
8114;DHT22;4099;52.684;9.918;2023-06-14T01:00:06;15.00;99.90
8114;DHT22;4099;52.684;9.918;2023-06-14T01:05:09;14.90;99.90
8114;DHT22;4099;52.684;9.918;2023-06-14T01:10:38;14.80;99.90
8114;DHT22;4099;52.684;9.918;2023-06-14T01:15:44;14.70;99.90
8114;DHT22;4099;52.684;9.918;2023-06-14T01:20:47;14.80;99.90
8114;DHT22;4099;52.684;9.918;2023-06-14T01:25:52;15.00;99.90
8114;DHT22;4099;52.684;9.918;2023-06-14T01:30:54;15.10;99.90
8114;DHT22;4099;52.684;9.918;2023-06-14T01:35:56;15.00;99.90
8114;DHT22;4099;52.684;9.918;2023-06-14T01:41:00;14.80;99.90
8114;DHT22;4099;52.684;9.918;2023-06-14T01:46:03;14.80;99.90
8114;DHT22;4099;52.684;9.918;2023-06-14T01:51:05;14.70;99.90
8114;DHT22;4099;52.684;9.918;2023-06-14T01:56:08;14.60;99.90
8114;DHT22;4099;52.684;9.918;2023-06-14T02:01:10;14.60;99.90
8114;DHT22;4099;52.684;9.918;2023-06-14T02:06:13;14.50;99.90
8114;DHT22;4099;52.684;9.918;2023-06-14T02:11:17;14.50;99.90
8114;DHT22;4099;52.684;9.918;2023-06-14T02:16:19;14.40;99.90
8114;DHT22;4099;52.684;9.918;2023-06-14T02:21:22;14.30;99.90
8114;DHT22;4099;52.684;9.918;2023-06-14T02:26:25;14.20;99.90
8114;DHT22;4099;52.684;9.918;2023-06-14T02:31:29;14.10;99.90
8114;DHT22;4099;52.684;9.918;2023-06-14T02:36:31;14.00;99.90
8114;DHT22;4099;52.684;9.918;2023-06-14T02:41:36;13.80;99.90
8114;DHT22;4099;52.684;9.918;2023-06-14T02:46:38;13.70;99.90
8114;DHT22;4099;52.684;9.918;2023-06-14T02:51:40;13.40;99.90
8114;DHT22;4099;52.684;9.918;2023-06-14T02:56:43;13.40;99.90
8114;DHT22;4099;52.684;9.918;2023-06-14T03:01:45;13.50;99.90
8114;DHT22;4099;52.684;9.918;2023-06-14T03:06:49;13.60;99.90
8114;DHT22;4099;52.684;9.918;2023-06-14T03:11:55;13.50;99.90
8114;DHT22;4099;52.684;9.918;2023-06-14T03:16:57;13.60;99.90
8114;DHT22;4099;52.684;9.918;2023-06-14T03:21:59;13.50;99.90
8114;DHT22;4099;52.684;9.918;2023-06-14T03:27:06;13.50;99.90
8114;DHT22;4099;52.684;9.918;2023-06-14T03:32:12;13.70;99.90
8114;DHT22;4099;52.684;9.918;2023-06-14T03:37:17;13.60;99.90
8114;DHT22;4099;52.684;9.918;2023-06-14T03:42:22;13.60;99.90
8114;DHT22;4099;52.684;9.918;2023-06-14T03:47:25;13.60;99.90
8114;DHT22;4099;52.684;9.918;2023-06-14T03:52:30;13.60;99.90
8114;DHT22;4099;52.684;9.918;2023-06-14T03:57:34;13.50;99.90
8114;DHT22;4099;52.684;9.918;2023-06-14T04:02:38;13.50;99.90
8114;DHT22;4099;52.684;9.918;2023-06-14T04:07:40;13.50;99.90
8114;DHT22;4099;52.684;9.918;2023-06-14T04:12:46;13.40;99.90
8114;DHT22;4099;52.684;9.918;2023-06-14T04:17:49;13.30;99.90
8114;DHT22;4099;52.684;9.918;2023-06-14T04:22:51;13.40;99.90
8114;DHT22;4099;52.684;9.918;2023-06-14T04:27:55;13.40;99.90
8114;DHT22;4099;52.684;9.918;2023-06-14T04:32:58;13.50;99.90
8114;DHT22;4099;52.684;9.918;2023-06-14T04:38:01;13.70;99.90
8114;DHT22;4099;52.684;9.918;2023-06-14T04:43:07;13.70;99.90
8114;DHT22;4099;52.684;9.918;2023-06-14T04:48:09;13.80;99.90
8114;DHT22;4099;52.684;9.918;2023-06-14T04:53:12;14.00;99.90
8114;DHT22;4099;52.684;9.918;2023-06-14T04:58:15;14.30;99.90
8114;DHT22;4099;52.684;9.918;2023-06-14T05:03:17;14.40;99.90
8114;DHT22;4099;52.684;9.918;2023-06-14T05:08:21;14.60;99.90
8114;DHT22;4099;52.684;9.918;2023-06-14T05:13:26;14.70;99.90
8114;DHT22;4099;52.684;9.918;2023-06-14T05:18:28;14.90;99.90
8114;DHT22;4099;52.684;9.918;2023-06-14T05:23:30;15.10;99.90
8114;DHT22;4099;52.684;9.918;2023-06-14T05:28:33;15.30;99.90
8114;DHT22;4099;52.684;9.918;2023-06-14T05:33:35;15.50;99.90
8114;DHT22;4099;52.684;9.918;2023-06-14T05:38:36;15.60;99.90
8114;DHT22;4099;52.684;9.918;2023-06-14T05:43:39;16.10;99.90
8114;DHT22;4099;52.684;9.918;2023-06-14T05:48:41;16.20;99.90
8114;DHT22;4099;52.684;9.918;2023-06-14T05:53:43;16.50;99.90
8114;DHT22;4099;52.684;9.918;2023-06-14T05:58:46;16.80;99.90
8114;DHT22;4099;52.684;9.918;2023-06-14T06:03:48;16.80;99.90
8114;DHT22;4099;52.684;9.918;2023-06-14T06:08:50;17.00;99.90
8114;DHT22;4099;52.684;9.918;2023-06-14T06:13:53;17.10;99.90
8114;DHT22;4099;52.684;9.918;2023-06-14T06:18:55;17.30;99.90
8114;DHT22;4099;52.684;9.918;2023-06-14T06:23:57;17.60;99.90
8114;DHT22;4099;52.684;9.918;2023-06-14T06:29:00;18.00;99.90
8114;DHT22;4099;52.684;9.918;2023-06-14T06:34:02;18.10;97.60
8114;DHT22;4099;52.684;9.918;2023-06-14T06:39:03;18.40;96.50
8114;DHT22;4099;52.684;9.918;2023-06-14T06:44:11;18.70;94.10
8114;DHT22;4099;52.684;9.918;2023-06-14T06:49:13;18.80;94.40
8114;DHT22;4099;52.684;9.918;2023-06-14T06:54:15;19.10;93.20
8114;DHT22;4099;52.684;9.918;2023-06-14T06:59:18;19.50;93.80
8114;DHT22;4099;52.684;9.918;2023-06-14T07:04:20;19.40;92.50
8114;DHT22;4099;52.684;9.918;2023-06-14T07:09:22;19.70;92.10
8114;DHT22;4099;52.684;9.918;2023-06-14T07:14:26;19.90;91.40
8114;DHT22;4099;52.684;9.918;2023-06-14T07:19:28;20.30;91.00
8114;DHT22;4099;52.684;9.918;2023-06-14T07:24:31;20.40;88.10
8114;DHT22;4099;52.684;9.918;2023-06-14T07:29:36;20.70;87.00
8114;DHT22;4099;52.684;9.918;2023-06-14T07:34:38;21.00;87.30
8114;DHT22;4099;52.684;9.918;2023-06-14T07:39:40;21.20;85.90
8114;DHT22;4099;52.684;9.918;2023-06-14T07:44:43;21.40;85.10
8114;DHT22;4099;52.684;9.918;2023-06-14T07:49:45;21.50;85.20
8114;DHT22;4099;52.684;9.918;2023-06-14T07:54:47;21.80;84.50
8114;DHT22;4099;52.684;9.918;2023-06-14T07:59:50;22.10;84.00
8114;DHT22;4099;52.684;9.918;2023-06-14T08:04:52;22.50;80.70
8114;DHT22;4099;52.684;9.918;2023-06-14T08:09:54;22.80;81.10
8114;DHT22;4099;52.684;9.918;2023-06-14T08:14:58;22.60;80.20
8114;DHT22;4099;52.684;9.918;2023-06-14T08:20:00;22.80;81.00
8114;DHT22;4099;52.684;9.918;2023-06-14T08:25:02;23.00;80.40
8114;DHT22;4099;52.684;9.918;2023-06-14T08:30:07;23.10;80.00
8114;DHT22;4099;52.684;9.918;2023-06-14T08:35:09;23.70;79.40
8114;DHT22;4099;52.684;9.918;2023-06-14T08:40:18;23.70;77.80
8114;DHT22;4099;52.684;9.918;2023-06-14T08:45:23;23.90;76.60
8114;DHT22;4099;52.684;9.918;2023-06-14T08:50:26;23.20;76.90
8114;DHT22;4099;52.684;9.918;2023-06-14T08:55:31;23.60;77.50
8114;DHT22;4099;52.684;9.918;2023-06-14T09:00:34;24.10;77.60
8114;DHT22;4099;52.684;9.918;2023-06-14T09:05:38;24.20;77.10
8114;DHT22;4099;52.684;9.918;2023-06-14T09:10:40;24.90;74.40
8114;DHT22;4099;52.684;9.918;2023-06-14T09:15:43;25.00;76.70
8114;DHT22;4099;52.684;9.918;2023-06-14T09:20:45;24.90;74.30
8114;DHT22;4099;52.684;9.918;2023-06-14T09:25:47;25.10;75.20
8114;DHT22;4099;52.684;9.918;2023-06-14T09:30:50;25.00;77.40
8114;DHT22;4099;52.684;9.918;2023-06-14T09:35:52;25.50;73.20
8114;DHT22;4099;52.684;9.918;2023-06-14T09:40:57;25.60;71.90
8114;DHT22;4099;52.684;9.918;2023-06-14T09:46:01;25.30;71.30
8114;DHT22;4099;52.684;9.918;2023-06-14T09:51:05;25.60;72.40
8114;DHT22;4099;52.684;9.918;2023-06-14T09:56:07;25.80;70.70
8114;DHT22;4099;52.684;9.918;2023-06-14T10:01:11;25.40;74.70
8114;DHT22;4099;52.684;9.918;2023-06-14T10:06:14;25.00;70.90
8114;DHT22;4099;52.684;9.918;2023-06-14T10:11:19;24.80;71.50
8114;DHT22;4099;52.684;9.918;2023-06-14T10:16:27;24.70;71.40
8114;DHT22;4099;52.684;9.918;2023-06-14T10:21:36;25.90;71.20
8114;DHT22;4099;52.684;9.918;2023-06-14T10:26:50;26.10;69.60
8114;DHT22;4099;52.684;9.918;2023-06-14T10:31:58;26.10;69.20
8114;DHT22;4099;52.684;9.918;2023-06-14T10:37:04;26.40;69.70
8114;DHT22;4099;52.684;9.918;2023-06-14T10:42:07;26.10;71.20
8114;DHT22;4099;52.684;9.918;2023-06-14T10:47:24;25.60;71.00
8114;DHT22;4099;52.684;9.918;2023-06-14T10:52:28;26.10;71.80
8114;DHT22;4099;52.684;9.918;2023-06-14T10:57:30;26.20;70.10
8114;DHT22;4099;52.684;9.918;2023-06-14T11:02:51;25.90;69.30
8114;DHT22;4099;52.684;9.918;2023-06-14T11:08:26;25.90;71.70
8114;DHT22;4099;52.684;9.918;2023-06-14T11:13:28;25.60;69.30
8114;DHT22;4099;52.684;9.918;2023-06-14T11:18:32;25.30;68.70
8114;DHT22;4099;52.684;9.918;2023-06-14T11:23:34;25.40;73.90
8114;DHT22;4099;52.684;9.918;2023-06-14T11:28:37;26.10;68.60
8114;DHT22;4099;52.684;9.918;2023-06-14T11:33:40;25.70;68.10
8114;DHT22;4099;52.684;9.918;2023-06-14T11:38:42;25.30;70.60
8114;DHT22;4099;52.684;9.918;2023-06-14T11:43:47;25.60;69.90
8114;DHT22;4099;52.684;9.918;2023-06-14T11:48:52;27.00;67.50
8114;DHT22;4099;52.684;9.918;2023-06-14T11:53:55;27.60;63.90
8114;DHT22;4099;52.684;9.918;2023-06-14T11:58:59;26.60;67.10
8114;DHT22;4099;52.684;9.918;2023-06-14T12:04:03;26.30;67.10
8114;DHT22;4099;52.684;9.918;2023-06-14T12:09:07;27.90;65.60
8114;DHT22;4099;52.684;9.918;2023-06-14T12:14:13;28.50;64.00
8114;DHT22;4099;52.684;9.918;2023-06-14T12:19:17;27.60;60.70
8114;DHT22;4099;52.684;9.918;2023-06-14T12:24:19;26.70;61.00
8114;DHT22;4099;52.684;9.918;2023-06-14T12:29:22;26.20;62.30
8114;DHT22;4099;52.684;9.918;2023-06-14T12:34:26;27.40;63.10
8114;DHT22;4099;52.684;9.918;2023-06-14T12:39:28;28.40;59.60
8114;DHT22;4099;52.684;9.918;2023-06-14T12:44:32;28.30;59.70
8114;DHT22;4099;52.684;9.918;2023-06-14T12:49:39;27.80;57.00
8114;DHT22;4099;52.684;9.918;2023-06-14T12:54:44;26.90;59.70
8114;DHT22;4099;52.684;9.918;2023-06-14T12:59:48;25.90;59.70
8114;DHT22;4099;52.684;9.918;2023-06-14T13:04:51;26.30;59.70
8114;DHT22;4099;52.684;9.918;2023-06-14T13:09:54;27.10;60.80
8114;DHT22;4099;52.684;9.918;2023-06-14T13:14:58;27.70;59.50
8114;DHT22;4099;52.684;9.918;2023-06-14T13:20:03;27.50;58.50
8114;DHT22;4099;52.684;9.918;2023-06-14T13:25:08;27.20;56.90
8114;DHT22;4099;52.684;9.918;2023-06-14T13:30:12;26.90;61.80
8114;DHT22;4099;52.684;9.918;2023-06-14T13:35:19;27.00;57.70
8114;DHT22;4099;52.684;9.918;2023-06-14T13:40:23;27.10;58.70
8114;DHT22;4099;52.684;9.918;2023-06-14T13:45:27;28.70;60.40
8114;DHT22;4099;52.684;9.918;2023-06-14T13:50:33;29.40;55.00
8114;DHT22;4099;52.684;9.918;2023-06-14T13:55:37;31.50;52.20
8114;DHT22;4099;52.684;9.918;2023-06-14T14:00:39;32.70;54.70
8114;DHT22;4099;52.684;9.918;2023-06-14T14:05:43;33.70;49.30
8114;DHT22;4099;52.684;9.918;2023-06-14T14:10:45;31.90;41.30
8114;DHT22;4099;52.684;9.918;2023-06-14T14:15:48;30.00;45.90
8114;DHT22;4099;52.684;9.918;2023-06-14T14:20:53;29.60;45.40
8114;DHT22;4099;52.684;9.918;2023-06-14T14:25:56;29.40;47.60
8114;DHT22;4099;52.684;9.918;2023-06-14T14:30:58;30.20;48.50
8114;DHT22;4099;52.684;9.918;2023-06-14T14:36:02;29.80;44.90
8114;DHT22;4099;52.684;9.918;2023-06-14T14:41:05;27.90;46.40
8114;DHT22;4099;52.684;9.918;2023-06-14T14:46:06;27.20;48.70
8114;DHT22;4099;52.684;9.918;2023-06-14T14:51:10;26.50;47.80
8114;DHT22;4099;52.684;9.918;2023-06-14T14:56:12;26.10;48.20
8114;DHT22;4099;52.684;9.918;2023-06-14T15:01:14;25.90;48.90
8114;DHT22;4099;52.684;9.918;2023-06-14T15:06:17;25.60;53.30
8114;DHT22;4099;52.684;9.918;2023-06-14T15:11:19;25.50;51.00
8114;DHT22;4099;52.684;9.918;2023-06-14T15:16:21;26.00;52.80
8114;DHT22;4099;52.684;9.918;2023-06-14T15:21:24;26.50;48.80
8114;DHT22;4099;52.684;9.918;2023-06-14T15:26:25;26.30;46.00
8114;DHT22;4099;52.684;9.918;2023-06-14T15:31:31;25.90;49.30
8114;DHT22;4099;52.684;9.918;2023-06-14T15:36:35;25.60;50.10
8114;DHT22;4099;52.684;9.918;2023-06-14T15:41:36;25.70;51.80
8114;DHT22;4099;52.684;9.918;2023-06-14T15:46:38;25.30;48.40
8114;DHT22;4099;52.684;9.918;2023-06-14T15:51:41;25.40;50.50
8114;DHT22;4099;52.684;9.918;2023-06-14T15:56:43;25.50;50.00
8114;DHT22;4099;52.684;9.918;2023-06-14T16:01:45;25.80;58.40
8114;DHT22;4099;52.684;9.918;2023-06-14T16:06:48;30.70;52.10
8114;DHT22;4099;52.684;9.918;2023-06-14T16:11:49;34.60;43.40
8114;DHT22;4099;52.684;9.918;2023-06-14T16:16:51;35.10;35.00
8114;DHT22;4099;52.684;9.918;2023-06-14T16:21:54;31.10;36.20
8114;DHT22;4099;52.684;9.918;2023-06-14T16:26:56;29.40;43.80
8114;DHT22;4099;52.684;9.918;2023-06-14T16:31:58;31.30;41.70
8114;DHT22;4099;52.684;9.918;2023-06-14T16:37:01;32.70;35.90
8114;DHT22;4099;52.684;9.918;2023-06-14T16:42:03;34.80;37.10
8114;DHT22;4099;52.684;9.918;2023-06-14T16:47:06;35.70;32.20
8114;DHT22;4099;52.684;9.918;2023-06-14T16:52:10;35.90;37.20
8114;DHT22;4099;52.684;9.918;2023-06-14T16:57:12;37.40;29.50
8114;DHT22;4099;52.684;9.918;2023-06-14T17:02:13;36.80;31.00
8114;DHT22;4099;52.684;9.918;2023-06-14T17:07:17;35.50;29.00
8114;DHT22;4099;52.684;9.918;2023-06-14T17:12:18;33.70;30.00
8114;DHT22;4099;52.684;9.918;2023-06-14T17:17:20;32.80;29.70
8114;DHT22;4099;52.684;9.918;2023-06-14T17:22:24;31.90;30.30
8114;DHT22;4099;52.684;9.918;2023-06-14T17:27:26;30.20;29.10
8114;DHT22;4099;52.684;9.918;2023-06-14T17:32:27;28.80;35.50
8114;DHT22;4099;52.684;9.918;2023-06-14T17:37:31;27.80;34.20
8114;DHT22;4099;52.684;9.918;2023-06-14T17:42:32;27.30;40.70
8114;DHT22;4099;52.684;9.918;2023-06-14T17:47:34;27.00;33.50
8114;DHT22;4099;52.684;9.918;2023-06-14T17:52:37;26.20;35.70
8114;DHT22;4099;52.684;9.918;2023-06-14T17:57:39;25.60;38.00
8114;DHT22;4099;52.684;9.918;2023-06-14T18:02:41;25.10;40.50
8114;DHT22;4099;52.684;9.918;2023-06-14T18:07:45;24.70;37.70
8114;DHT22;4099;52.684;9.918;2023-06-14T18:12:47;24.30;41.40
8114;DHT22;4099;52.684;9.918;2023-06-14T18:17:49;24.10;40.40
8114;DHT22;4099;52.684;9.918;2023-06-14T18:22:52;23.80;40.70
8114;DHT22;4099;52.684;9.918;2023-06-14T18:27:55;23.40;43.30
8114;DHT22;4099;52.684;9.918;2023-06-14T18:32:57;23.00;45.20
8114;DHT22;4099;52.684;9.918;2023-06-14T18:38:00;23.00;42.70
8114;DHT22;4099;52.684;9.918;2023-06-14T18:43:01;22.80;45.80
8114;DHT22;4099;52.684;9.918;2023-06-14T18:48:04;22.70;45.50
8114;DHT22;4099;52.684;9.918;2023-06-14T18:53:08;22.70;47.00
8114;DHT22;4099;52.684;9.918;2023-06-14T18:58:09;22.70;47.40
8114;DHT22;4099;52.684;9.918;2023-06-14T19:03:11;22.60;47.00
8114;DHT22;4099;52.684;9.918;2023-06-14T19:08:14;22.50;47.30
8114;DHT22;4099;52.684;9.918;2023-06-14T19:13:16;22.30;50.20
8114;DHT22;4099;52.684;9.918;2023-06-14T19:18:18;22.20;47.80
8114;DHT22;4099;52.684;9.918;2023-06-14T19:23:21;22.10;48.50
8114;DHT22;4099;52.684;9.918;2023-06-14T19:28:24;21.80;50.10
8114;DHT22;4099;52.684;9.918;2023-06-14T19:33:27;21.50;50.70
8114;DHT22;4099;52.684;9.918;2023-06-14T19:38:30;21.10;51.30
8114;DHT22;4099;52.684;9.918;2023-06-14T19:43:32;20.90;54.50
8114;DHT22;4099;52.684;9.918;2023-06-14T19:48:34;20.70;55.90
8114;DHT22;4099;52.684;9.918;2023-06-14T19:53:37;20.40;54.40
8114;DHT22;4099;52.684;9.918;2023-06-14T19:58:39;20.30;55.90
8114;DHT22;4099;52.684;9.918;2023-06-14T20:03:42;19.90;57.10
8114;DHT22;4099;52.684;9.918;2023-06-14T20:08:45;19.80;56.90
8114;DHT22;4099;52.684;9.918;2023-06-14T20:13:48;19.70;58.20
8114;DHT22;4099;52.684;9.918;2023-06-14T20:18:49;19.50;58.40
8114;DHT22;4099;52.684;9.918;2023-06-14T20:23:53;19.40;59.30
8114;DHT22;4099;52.684;9.918;2023-06-14T20:28:54;19.20;59.60
8114;DHT22;4099;52.684;9.918;2023-06-14T20:33:57;19.20;59.20
8114;DHT22;4099;52.684;9.918;2023-06-14T20:39:00;19.10;61.10
8114;DHT22;4099;52.684;9.918;2023-06-14T20:44:02;18.90;59.50
8114;DHT22;4099;52.684;9.918;2023-06-14T20:49:04;18.70;60.90
8114;DHT22;4099;52.684;9.918;2023-06-14T20:54:09;18.60;61.80
8114;DHT22;4099;52.684;9.918;2023-06-14T20:59:11;18.40;62.90
8114;DHT22;4099;52.684;9.918;2023-06-14T21:04:13;18.30;64.40
8114;DHT22;4099;52.684;9.918;2023-06-14T21:09:16;18.20;62.60
8114;DHT22;4099;52.684;9.918;2023-06-14T21:14:18;18.20;62.80
8114;DHT22;4099;52.684;9.918;2023-06-14T21:19:20;18.10;63.10
8114;DHT22;4099;52.684;9.918;2023-06-14T21:24:23;18.00;64.10
8114;DHT22;4099;52.684;9.918;2023-06-14T21:29:25;17.90;63.70
8114;DHT22;4099;52.684;9.918;2023-06-14T21:34:26;17.90;64.20
8114;DHT22;4099;52.684;9.918;2023-06-14T21:39:30;17.80;65.60
8114;DHT22;4099;52.684;9.918;2023-06-14T21:44:32;17.80;65.80
8114;DHT22;4099;52.684;9.918;2023-06-14T21:49:34;17.60;67.40
8114;DHT22;4099;52.684;9.918;2023-06-14T21:54:37;17.60;66.80
8114;DHT22;4099;52.684;9.918;2023-06-14T21:59:39;17.50;67.60
8114;DHT22;4099;52.684;9.918;2023-06-14T22:04:42;17.50;67.50
8114;DHT22;4099;52.684;9.918;2023-06-14T22:09:45;17.30;70.90
8114;DHT22;4099;52.684;9.918;2023-06-14T22:14:47;17.10;72.30
8114;DHT22;4099;52.684;9.918;2023-06-14T22:19:49;17.00;73.90
8114;DHT22;4099;52.684;9.918;2023-06-14T22:24:54;16.80;78.10
8114;DHT22;4099;52.684;9.918;2023-06-14T22:29:55;16.60;84.00
8114;DHT22;4099;52.684;9.918;2023-06-14T22:34:58;16.50;84.80
8114;DHT22;4099;52.684;9.918;2023-06-14T22:40:04;16.40;89.90
8114;DHT22;4099;52.684;9.918;2023-06-14T22:45:10;16.40;89.00
8114;DHT22;4099;52.684;9.918;2023-06-14T22:50:13;16.40;88.70
8114;DHT22;4099;52.684;9.918;2023-06-14T22:55:16;16.30;88.80
8114;DHT22;4099;52.684;9.918;2023-06-14T23:00:18;16.40;87.80
8114;DHT22;4099;52.684;9.918;2023-06-14T23:05:20;16.30;89.90
8114;DHT22;4099;52.684;9.918;2023-06-14T23:10:23;16.20;90.00
8114;DHT22;4099;52.684;9.918;2023-06-14T23:15:24;16.10;90.80
8114;DHT22;4099;52.684;9.918;2023-06-14T23:20:29;16.00;91.50
8114;DHT22;4099;52.684;9.918;2023-06-14T23:25:34;16.00;92.30
8114;DHT22;4099;52.684;9.918;2023-06-14T23:30:36;15.90;92.40
8114;DHT22;4099;52.684;9.918;2023-06-14T23:35:37;15.80;93.70
8114;DHT22;4099;52.684;9.918;2023-06-14T23:40:42;15.70;93.40
8114;DHT22;4099;52.684;9.918;2023-06-14T23:45:46;15.50;94.80
8114;DHT22;4099;52.684;9.918;2023-06-14T23:50:51;15.50;94.60
8114;DHT22;4099;52.684;9.918;2023-06-14T23:55:54;15.40;95.10
